Terminal Aerodrome Forecast
Issued by NWS

Current Version | Previous Version | Text Only | Print | Product List | Glossary Off
Versions: 1 2 3 4 5 6 7 8 9 10 11 12 13 14 15 16 17 18 19 20 21 22 23 24 25 26 27

000
FTUS41 KILN 180500
TAFLUK
TAF
KLUK 180531Z 1806/1906 00000KT 3/4SM BR VV003
     FM180700 00000KT 1/2SM FG VV001
     FM181200 00000KT 4SM BR SCT015
     FM181300 04006KT P6SM SCT040
     FM182300 00000KT P6SM SKC
     FM190400 00000KT 4SM BR SKC=

USA.gov is the U.S. government's official web portal to all federal, state and local government web resources and services.